Latest Weather Observations for Cape Flattery

IDQ60801

Issued at 10:32 am EST Thursday 23 September 2021 (issued every 10 minutes, with the page automatically refreshed every 10 minutes)

About weather observations | Map of weather stations | Latest weather observations for QLD | Other Formats
Station Details ID: 031213 Name: CAPE FLATTERY Lat: -14.97 Lon: 145.31 Height: 18.5 m
Data from the previous 72 hours. | See also: Recent months at Cape Flattery
Date/Time
EST
Temp
°C
App
Temp
°C
Dew
Point
°C
Rel
Hum
%
Delta-T
°C
Wind Press
QNH
hPa
Press
MSL
hPa
Rain since
9am
mm
Dir  Spd
km/h
Gust
km/h
Spd
kts
Gust
kts
23/10:30am 24.9 20.2 16.9 61 4.9 SE 37 52 20 28 1018.5 1018.4 0.0
23/10:00am 25.5 20.8 15.8 55 5.9 SE 35 48 19 26 1018.4 1018.3 0.0
23/09:30am 25.2 19.8 14.0 49 6.6 SE 35 52 19 28 1018.5 1018.4 0.0
23/09:00am 25.0 20.5 14.8 53 6.1 SE 32 44 17 24 1018.3 1018.2 0.0
23/08:30am 23.7 18.7 16.0 62 4.7 SE 37 50 20 27 1018.2 1018.1 0.0
23/08:00am 23.5 18.9 14.5 57 5.3 SE 32 50 17 27 1017.9 1017.8 0.0
23/07:59am 23.4 18.7 14.4 57 5.3 SE 32 50 17 27 1017.9 1017.8 0.0
23/07:30am 23.0 18.1 15.3 62 4.6 SE 35 52 19 28 1017.6 1017.5 0.0
23/07:16am 22.8 18.5 15.4 63 4.4 SE 32 50 17 27 1017.5 1017.4 0.0
23/07:00am 22.8 17.6 14.6 60 4.8 SE 35 46 19 25 1017.2 1017.1 0.0
23/06:43am 22.7 18.0 14.3 59 4.9 SE 32 54 17 29 1017.0 1016.9 0.0
23/06:30am 22.6 16.6 13.4 56 5.3 SE 37 50 20 27 1016.8 1016.7 0.0
23/06:00am 22.0 16.5 13.6 59 4.9 SE 35 50 19 27 1016.7 1016.6 0.0
23/05:30am 21.9 16.9 13.5 59 4.8 SE 32 48 17 26 1016.4 1016.3 0.0
23/05:05am 22.0 16.2 12.8 56 5.2 SE 35 54 19 29 1016.3 1016.2 0.0
23/05:00am 21.9 16.2 13.0 57 5.1 SE 35 46 19 25 1016.3 1016.2 0.0
23/04:30am 21.8 16.4 12.9 57 5.1 SE 33 50 18 27 1016.0 1015.9 0.0
23/04:00am 22.0 16.2 12.8 56 5.2 SE 35 54 19 29 1015.8 1015.7 0.0
23/03:43am 21.7 16.3 12.3 55 5.3 SE 32 50 17 27 1015.8 1015.7 0.0
23/03:30am 21.7 15.8 12.5 56 5.2 SE 35 46 19 25 1015.9 1015.8 0.0
23/03:00am 21.7 15.9 12.8 57 5.1 SE 35 54 19 29 1016.0 1015.9 0.0
23/02:51am 21.8 16.5 12.6 56 5.2 SE 32 54 17 29 1016.1 1016.0 0.0
23/02:30am 21.8 15.7 12.9 57 5.1 SE 37 50 20 27 1016.2 1016.1 0.0
23/02:00am 21.8 15.2 12.6 56 5.2 SE 39 54 21 29 1016.7 1016.6 0.0
23/01:30am 22.0 16.7 14.1 61 4.6 SE 35 50 19 27 1016.8 1016.7 0.0
23/01:08am 22.2 17.0 14.6 62 4.5 SE 35 56 19 30 1016.9 1016.8 0.0
23/01:00am 22.2 16.9 14.3 61 4.6 SE 35 48 19 26 1017.0 1016.9 0.0
23/12:31am 22.2 16.7 14.6 62 4.5 SE 37 56 20 30 1017.3 1017.2 0.0
23/12:30am 22.2 16.5 14.3 61 4.6 SE 37 54 20 29 1017.3 1017.2 0.0
23/12:00am 22.3 17.4 14.4 61 4.6 SE 33 44 18 24 1017.7 1017.6 0.0
 
Date/Time
EST
Temp
°C
App
Temp
°C
Dew
Point
°C
Rel
Hum
%
Delta-T
°C
Wind Press
QNH
hPa
Press
MSL
hPa
Rain since
9am
mm
Dir  Spd
km/h
Gust
km/h
Spd
kts
Gust
kts
22/11:30pm 22.2 16.9 14.3 61 4.6 SE 35 46 19 25 1017.9 1017.8 0.0
22/11:05pm 22.3 17.7 15.2 64 4.2 SE 33 52 18 28 1018.1 1018.0 0.0
22/11:00pm 22.3 17.8 15.4 65 4.1 SE 33 46 18 25 1018.0 1017.9 0.0
22/10:42pm 22.4 18.0 15.7 66 4.0 SE 33 52 18 28 1017.9 1017.8 0.0
22/10:30pm 22.4 18.0 15.7 66 4.0 SE 33 50 18 27 1017.9 1017.8 0.0
22/10:26pm 22.3 18.1 15.6 66 4.0 SE 32 50 17 27 1017.8 1017.7 0.0
22/10:00pm 22.3 17.7 16.1 68 3.7 SE 35 46 19 25 1017.9 1017.8 0.0
22/09:30pm 22.4 17.8 16.2 68 3.8 SE 35 48 19 26 1017.6 1017.5 0.0
22/09:00pm 22.5 17.6 16.3 68 3.8 SE 37 52 20 28 1017.5 1017.4 0.0
22/08:32pm 22.6 18.1 16.4 68 3.8 SE 35 54 19 29 1017.4 1017.3 0.0
22/08:30pm 22.5 17.7 16.5 69 3.7 SE 37 54 20 29 1017.3 1017.2 0.0
22/08:00pm 22.6 17.0 16.4 68 3.8 SE 41 54 22 29 1017.2 1017.1 0.0
22/07:30pm 22.6 17.3 16.4 68 3.8 SSE 39 52 21 28 1016.9 1016.8 0.0
22/07:05pm 22.7 17.9 16.7 69 3.7 SE 37 56 20 30 1016.6 1016.5 0.0
22/07:00pm 22.6 17.0 16.6 69 3.7 SSE 41 56 22 30 1016.5 1016.4 0.0
22/06:30pm 22.8 17.6 16.6 68 3.8 SSE 39 57 21 31 1016.2 1016.1 0.0
22/06:29pm 22.8 17.6 16.6 68 3.8 SSE 39 57 21 31 1016.3 1016.2 0.0
22/06:00pm 23.0 17.5 16.8 68 3.8 SSE 41 57 22 31 1015.9 1015.8 0.0
22/05:39pm 23.3 18.5 16.6 66 4.1 SE 37 56 20 30 1015.6 1015.5 0.0
22/05:30pm 23.5 19.2 16.8 66 4.1 SE 35 52 19 28 1015.5 1015.4 0.0
22/05:00pm 24.2 19.2 17.0 64 4.4 SSE 39 56 21 30 1015.3 1015.2 0.0
22/04:30pm 24.4 19.8 17.1 63 4.5 SSE 37 52 20 28 1015.1 1015.0 0.0
22/04:03pm 25.1 19.8 17.3 62 4.9 SSE 41 59 22 32 1015.0 1014.9 0.0
22/04:00pm 25.4 19.9 17.6 62 4.9 SSE 43 59 23 32 1014.9 1014.8 0.0
22/03:32pm 25.3 19.9 17.0 60 5.1 SSE 41 59 22 32 1015.0 1014.9 0.0
22/03:30pm 25.9 20.5 17.8 61 5.1 SSE 43 57 23 31 1014.9 1014.8 0.0
22/03:10pm 25.3 19.6 17.2 61 5.0 SSE 43 61 23 33 1014.7 1014.6 0.0
22/03:00pm 25.6 19.1 17.5 61 5.1 SSE 48 61 26 33 1014.8 1014.7 0.0
22/02:30pm 26.0 20.8 18.4 63 4.8 SSE 43 65 23 35 1014.8 1014.7 0.0
22/02:09pm 26.1 20.6 18.2 61 5.0 SSE 44 63 24 34 1014.9 1014.8 0.0
22/02:00pm 26.5 20.7 18.4 61 5.1 SSE 46 57 25 31 1015.0 1014.9 0.0
22/01:30pm 26.6 21.4 18.7 62 5.0 SSE 44 63 24 34 1015.1 1015.0 0.0
22/01:20pm 26.1 20.8 18.5 63 4.8 SSE 44 63 24 34 1015.3 1015.2 0.0
22/01:00pm 25.3 20.2 18.7 67 4.2 SSE 43 59 23 32 1015.4 1015.3 0.0
22/12:32pm 25.7 20.8 19.1 67 4.2 SSE 43 61 23 33 1015.5 1015.4 0.0
22/12:30pm 25.7 21.1 19.6 69 3.9 SSE 43 59 23 32 1015.6 1015.5 0.0
22/12:00pm 24.9 19.6 18.6 68 4.0 SSE 44 61 24 33 1015.8 1015.7 0.0
22/11:30am 26.4 19.1 17.5 58 5.6 SSE 52 63 28 34 1016.0 1015.9 0.0
22/11:00am 26.3 20.2 17.6 58 5.5 SSE 46 69 25 37 1016.2 1016.1 0.0
22/10:30am 26.1 20.1 16.9 57 5.7 SSE 44 63 24 34 1016.4 1016.3 0.0
22/10:29am 26.1 20.2 17.2 58 5.6 SSE 44 63 24 34 1016.4 1016.3 0.0
22/10:00am 26.8 20.4 17.8 57 5.7 SSE 48 63 26 34 1016.3 1016.2 0.0
22/09:34am 26.7 20.8 17.2 56 5.9 SSE 44 63 24 34 1016.2 1016.1 0.0
22/09:30am 26.4 20.0 16.9 56 5.9 SSE 46 61 25 33 1016.2 1016.1 0.0
22/09:00am 26.1 19.0 14.9 50 6.7 SSE 46 61 25 33 1016.0 1015.9 0.0
22/08:33am 25.9 17.8 14.4 49 6.9 SSE 50 72 27 39 1015.6 1015.5 0.0
22/08:30am 26.0 18.4 14.8 50 6.7 SSE 48 63 26 34 1015.6 1015.5 0.0
22/08:00am 25.7 19.2 15.7 54 6.1 SSE 44 63 24 34 1015.0 1014.9 0.0
22/07:30am 25.3 19.1 15.9 56 5.7 SSE 43 56 23 30 1014.5 1014.4 0.0
22/07:18am 25.0 19.3 15.3 55 5.8 SSE 39 59 21 32 1014.3 1014.2 0.0
22/07:00am 24.6 19.1 16.8 62 4.8 SSE 41 52 22 28 1014.0 1013.9 0.0
22/06:35am 23.9 19.7 17.2 66 4.1 SSE 35 57 19 31 1013.6 1013.5 0.0
22/06:30am 23.9 20.6 19.2 75 3.0 SSE 35 48 19 26 1013.6 1013.5 0.0
22/06:00am 22.8 21.2 20.1 85 1.7 SSE 28 39 15 21 1013.2 1013.1 0.0
22/05:30am 22.6 21.7 20.7 89 1.2 SSE 26 35 14 19 1012.8 1012.7 0.0
22/05:00am 22.6 21.6 20.5 88 1.4 SSE 26 33 14 18 1012.5 1012.4 0.0
22/04:30am 22.5 22.0 20.8 90 1.1 SSE 24 33 13 18 1012.5 1012.4 0.0
22/04:00am 22.1 22.5 20.9 93 0.8 SSE 20 30 11 16 1012.4 1012.3 0.0
22/03:30am 21.8 22.8 21.0 95 0.5 SSE 17 20 9 11 1012.3 1012.2 0.0
22/03:00am 21.6 23.3 20.9 96 0.5 SSE 13 17 7 9 1012.5 1012.4 0.0
22/02:30am 21.3 22.8 20.6 96 0.5 SSE 13 15 7 8 1012.6 1012.5 0.0
22/02:00am 21.5 23.1 20.8 96 0.5 SSE 13 15 7 8 1013.1 1013.0 0.0
22/01:30am 20.9 22.6 20.2 96 0.4 SSE 11 15 6 8 1013.3 1013.2 0.0
22/01:00am 20.3 22.5 19.5 95 0.5 SSE 7 9 4 5 1013.7 1013.6 0.0
22/12:30am 20.8 23.2 20.0 95 0.5 SSE 7 9 4 5 1014.1 1014.0 0.0
22/12:00am 21.1 23.2 20.1 94 0.6 SSE 9 9 5 5 1014.1 1014.0 0.0
 
Date/Time
EST
Temp
°C
App
Temp
°C
Dew
Point
°C
Rel
Hum
%
Delta-T
°C
Wind Press
QNH
hPa
Press
MSL
hPa
Rain since
9am
mm
Dir  Spd
km/h
Gust
km/h
Spd
kts
Gust
kts
21/11:30pm 21.7 24.0 20.7 94 0.6 SSE 9 9 5 5 1014.4 1014.3 0.0
21/11:00pm 21.0 22.9 19.8 93 0.8 SSE 9 13 5 7 1014.7 1014.6 0.0
21/10:30pm 20.9 22.7 19.6 92 0.8 SSW 9 13 5 7 1014.9 1014.8 0.0
21/10:00pm 22.3 24.7 20.8 91 1.0 ESE 9 11 5 6 1014.9 1014.8 0.0
21/09:30pm 22.6 24.7 20.9 90 1.1 ESE 11 15 6 8 1014.9 1014.8 0.0
21/09:00pm 23.0 25.2 21.1 89 1.2 ESE 11 15 6 8 1014.8 1014.7 0.0
21/08:30pm 22.9 24.5 20.8 88 1.4 SE 13 17 7 9 1014.4 1014.3 0.0
21/08:00pm 22.8 24.0 20.7 88 1.4 ESE 15 20 8 11 1014.0 1013.9 0.0
21/07:30pm 22.6 24.0 20.3 87 1.5 ESE 13 17 7 9 1013.7 1013.6 0.0
21/07:00pm 23.0 24.9 20.5 86 1.6 ESE 11 17 6 9 1013.5 1013.4 0.0
21/06:30pm 23.5 24.3 20.6 84 1.9 SE 17 22 9 12 1012.9 1012.8 0.0
21/06:00pm 24.1 24.4 20.4 80 2.4 SE 19 24 10 13 1012.9 1012.8 0.0
21/05:30pm 25.1 25.5 20.6 76 2.9 SSE 19 24 10 13 1012.5 1012.4 0.0
21/05:00pm 25.7 25.5 20.5 73 3.4 SSE 22 32 12 17 1012.5 1012.4 0.0
21/04:30pm 26.1 25.1 20.4 71 3.7 SE 26 32 14 17 1012.3 1012.2 0.0
21/04:00pm 26.7 25.9 20.8 70 3.9 SE 26 35 14 19 1012.4 1012.3 0.0
21/03:30pm 26.7 25.2 20.3 68 4.2 SE 28 37 15 20 1012.6 1012.5 0.0
21/03:00pm 27.2 25.3 21.0 69 4.1 SSE 32 41 17 22 1012.8 1012.7 0.0
21/02:30pm 26.8 24.6 20.4 68 4.2 SSE 32 41 17 22 1012.9 1012.8 0.0
21/02:00pm 26.4 24.0 20.3 69 4.0 SSE 33 41 18 22 1013.4 1013.3 0.0
21/01:30pm 27.0 24.7 20.6 68 4.2 SSE 33 44 18 24 1013.7 1013.6 0.0
21/01:00pm 27.7 25.6 21.0 67 4.4 SSE 33 41 18 22 1014.0 1013.9 0.0
21/12:30pm 27.7 25.3 21.0 67 4.4 SSE 35 44 19 24 1014.5 1014.4 0.0
21/12:00pm 27.0 24.4 20.6 68 4.2 SSE 35 44 19 24 1014.8 1014.7 0.0
21/11:30am 27.8 26.1 21.3 67 4.3 SSE 32 43 17 23 1015.0 1014.9 0.0
21/11:00am 26.9 24.2 20.5 68 4.2 SSE 35 43 19 23 1015.0 1014.9 0.0
21/10:30am 26.9 25.0 21.0 70 3.9 S 32 39 17 21 1015.2 1015.1 0.0
21/10:00am 26.6 24.8 20.4 69 4.1 SSE 30 41 16 22 1015.4 1015.3 0.0
21/09:30am 26.7 24.7 20.8 70 3.9 SSE 32 43 17 23 1015.7 1015.6 0.0
21/09:00am 26.0 23.8 20.3 71 3.7 SSE 32 43 17 23 1015.8 1015.7 0.0
21/08:30am 25.7 24.0 20.5 73 3.4 SSE 30 43 16 23 1015.6 1015.5 0.0
21/08:00am 24.6 22.8 20.3 77 2.8 SSE 30 41 16 22 1015.5 1015.4 0.0
21/07:30am 23.9 21.7 20.4 81 2.3 SSE 32 43 17 23 1015.1 1015.0 0.0
21/07:00am 23.7 22.8 20.6 83 2.0 SSE 26 39 14 21 1014.9 1014.8 0.0
21/06:30am 23.5 21.7 19.6 79 2.5 SSE 28 39 15 21 1014.4 1014.3 0.0
21/06:00am 23.2 21.8 19.6 80 2.3 SSE 26 35 14 19 1014.0 1013.9 0.0
21/05:30am 23.0 22.3 20.3 85 1.7 SSE 24 35 13 19 1013.7 1013.6 0.0
21/05:00am 23.1 22.2 20.6 86 1.6 SSE 26 35 14 19 1013.5 1013.4 0.0
21/04:30am 23.2 22.1 20.3 84 1.9 SSE 26 35 14 19 1013.5 1013.4 0.0
21/04:00am 23.1 21.9 20.1 83 1.9 SSE 26 37 14 20 1013.3 1013.2 0.0
21/03:30am 23.1 22.3 20.1 83 1.9 SSE 24 33 13 18 1013.4 1013.3 0.0
21/03:00am 23.3 22.4 19.9 81 2.2 SSE 24 32 13 17 1013.7 1013.6 0.0
21/02:30am 23.5 22.6 19.8 80 2.4 SSE 24 32 13 17 1014.0 1013.9 0.0
21/02:00am 22.9 21.8 18.7 77 2.7 SSE 22 28 12 15 1014.2 1014.1 0.0
21/01:30am 23.0 22.5 19.2 79 2.4 SSE 20 26 11 14 1014.5 1014.4 0.0
21/01:00am 23.0 22.1 18.3 75 2.9 SSE 20 28 11 15 1014.8 1014.7 0.0
21/12:30am 23.1 21.9 18.4 75 3.0 SSE 22 30 12 16 1015.1 1015.0 0.0
21/12:00am 23.3 21.3 18.4 74 3.1 SSE 26 33 14 18 1015.6 1015.5 0.0
 
Date/Time
EST
Temp
°C
App
Temp
°C
Dew
Point
°C
Rel
Hum
%
Delta-T
°C
Wind Press
QNH
hPa
Press
MSL
hPa
Rain since
9am
mm
Dir  Spd
km/h
Gust
km/h
Spd
kts
Gust
kts
20/11:30pm 23.4 21.8 18.3 73 3.2 SE 24 35 13 19 1015.9 1015.8 0.0
20/11:00pm 23.3 22.0 18.2 73 3.2 SE 22 32 12 17 1016.1 1016.0 0.0
20/10:30pm 23.5 21.8 18.2 72 3.3 SSE 24 33 13 18 1016.2 1016.1 0.0
20/10:00pm 23.6 21.6 18.3 72 3.3 SSE 26 37 14 20 1016.3 1016.2 0.0
20/09:30pm 23.5 21.2 17.7 70 3.6 SE 26 35 14 19 1016.4 1016.3 0.0
20/09:00pm 23.8 20.9 18.0 70 3.6 SSE 30 41 16 22 1016.3 1016.2 0.0
20/08:30pm 23.7 21.7 18.4 72 3.3 SSE 26 37 14 20 1016.1 1016.0 0.0
20/08:00pm 23.8 21.7 18.0 70 3.6 SSE 26 37 14 20 1015.9 1015.8 0.0
20/07:30pm 23.8 21.2 17.8 69 3.7 SSE 28 39 15 21 1015.6 1015.5 0.0
20/07:00pm 23.9 21.6 17.6 68 3.9 SE 26 35 14 19 1015.5 1015.4 0.0
20/06:30pm 23.9 21.6 17.6 68 3.9 SE 26 33 14 18 1015.1 1015.0 0.0
20/06:00pm 24.1 21.6 18.1 69 3.8 SSE 28 37 15 20 1014.8 1014.7 0.0
20/05:30pm 24.7 21.7 17.7 65 4.4 SSE 30 43 16 23 1014.7 1014.6 0.0
20/05:00pm 25.5 22.3 17.2 60 5.2 SSE 30 43 16 23 1014.6 1014.5 0.0
20/04:30pm 26.5 23.1 17.6 58 5.6 SSE 32 44 17 24 1014.6 1014.5 0.0
20/04:00pm 26.8 22.9 17.0 55 6.1 SSE 33 43 18 23 1014.4 1014.3 0.0
20/03:30pm 27.3 23.6 16.9 53 6.5 SE 32 43 17 23 1014.4 1014.3 0.0
20/03:00pm 27.2 23.2 16.8 53 6.5 SSE 33 44 18 24 1014.6 1014.5 0.0
20/02:30pm 27.5 23.4 16.5 51 6.8 SSE 33 46 18 25 1014.8 1014.7 0.0
20/02:00pm 27.8 23.8 16.1 49 7.2 SSE 32 46 17 25 1015.1 1015.0 0.0
20/01:30pm 27.2 22.7 16.5 52 6.6 SSE 35 46 19 25 1015.5 1015.4 0.0
20/01:00pm 27.6 22.8 16.6 51 6.8 SSE 37 48 20 26 1015.8 1015.7 0.0
20/12:30pm 28.4 24.3 17.3 51 7.0 SSE 35 48 19 26 1016.3 1016.2 0.0
20/12:00pm 28.2 23.3 17.4 52 6.8 SSE 39 52 21 28 1016.6 1016.5 0.0
20/11:30am 27.7 23.1 18.1 56 6.1 SSE 39 48 21 26 1016.9 1016.8 0.0
20/11:00am 27.7 24.2 18.7 58 5.8 SSE 35 44 19 24 1017.2 1017.1 0.0

Other formats

Comma delimited format used in spreadsheet applications
http://www.bom.gov.au/fwo/IDQ60801/IDQ60801.94188.axf

JavaScript Object Notation format (JSON) in row-major order
http://www.bom.gov.au/fwo/IDQ60801/IDQ60801.94188.json

Data quality

Most of these data are generated automatically and are frequently updated. Quality checks on data are not normally performed. It is possible for incorrect values to appear. Refer to information at About Latest Weather Observations and please check the disclaimer before using these data.